Time;durP1;ratioP1;P1;durP2;ratioP2;P2;SDS_P1;SDS_P2;PMS_P1;PMS_P2;Temp;Humidity;BMP_temperature;BMP_pressure;BME280_temperature;BME280_humidity;BME280_pressure;Samples;Min_cycle;Max_cycle;Signal;HPM_P1;HPM_P2
2023/12/06 00:02:26;;;;;;;43.20;23.03;;;;;;;-0.16;100.00;100254.11;1458285;89;21649;-78
2023/12/06 00:04:52;;;;;;;40.87;24.20;;;;;;;-0.18;100.00;100252.03;1463188;89;21665;-77
2023/12/06 00:07:18;;;;;;;41.70;23.90;;;;;;;-0.17;100.00;100251.14;1458660;89;21730;-78
2023/12/06 00:09:44;;;;;;;43.00;23.90;;;;;;;-0.18;100.00;100253.34;1459510;89;21559;-77
2023/12/06 00:12:10;;;;;;;41.30;22.57;;;;;;;-0.19;100.00;100256.88;1457063;89;22107;-78
2023/12/06 00:14:36;;;;;;;37.03;22.03;;;;;;;-0.21;100.00;100254.80;1461180;89;21608;-76
2023/12/06 00:17:03;;;;;;;43.17;25.73;;;;;;;-0.27;100.00;100253.84;1456946;89;22439;-77
2023/12/06 00:19:29;;;;;;;48.27;25.07;;;;;;;-0.29;100.00;100256.98;1448423;89;21457;-77
2023/12/06 00:21:55;;;;;;;43.17;23.47;;;;;;;-0.31;100.00;100256.25;1455167;89;22587;-77
2023/12/06 00:24:21;;;;;;;46.60;24.37;;;;;;;-0.32;100.00;100256.67;1450381;89;22070;-77
2023/12/06 00:26:48;;;;;;;42.70;23.87;;;;;;;-0.32;100.00;100259.74;1461879;89;21931;-77
2023/12/06 00:29:14;;;;;;;46.40;23.57;;;;;;;-0.33;100.00;100263.28;1440814;89;21639;-76
2023/12/06 00:31:41;;;;;;;49.73;26.00;;;;;;;-0.35;100.00;100258.61;1459516;89;21653;-77
2023/12/06 00:34:07;;;;;;;37.03;22.53;;;;;;;-0.32;100.00;100261.88;1458705;89;21684;-77
2023/12/06 00:36:33;;;;;;;38.60;23.43;;;;;;;-0.31;100.00;100260.14;1457645;89;23336;-76
2023/12/06 00:38:59;;;;;;;39.20;22.43;;;;;;;-0.35;100.00;100267.25;1457754;89;21758;-76
2023/12/06 00:41:26;;;;;;;38.90;23.20;;;;;;;-0.39;100.00;100255.34;1459346;89;21614;-77
2023/12/06 00:43:53;;;;;;;42.87;24.83;;;;;;;-0.36;100.00;100259.55;1453222;89;21795;-76
2023/12/06 00:46:20;;;;;;;46.00;24.70;;;;;;;-0.40;100.00;100266.68;1460520;89;21597;-77
2023/12/06 00:48:46;;;;;;;38.83;22.17;;;;;;;-0.38;100.00;100262.68;1459095;89;21594;-76
2023/12/06 00:51:12;;;;;;;43.23;25.77;;;;;;;-0.46;100.00;100264.41;1462694;89;21531;-76
2023/12/06 00:53:38;;;;;;;45.43;24.87;;;;;;;-0.46;100.00;100264.41;1457813;89;21620;-76
2023/12/06 00:56:12;;;;;;;41.33;25.73;;;;;;;-0.41;100.00;100261.08;1455427;89;21684;-76
2023/12/06 00:58:38;;;;;;;42.17;23.80;;;;;;;-0.43;100.00;100263.38;1449968;89;21441;-76
2023/12/06 01:01:05;;;;;;;39.37;23.10;;;;;;;-0.47;100.00;100259.64;1455079;89;21840;-77
2023/12/06 01:03:31;;;;;;;46.53;27.00;;;;;;;-0.48;100.00;100255.84;1461658;89;21750;-77
2023/12/06 01:05:57;;;;;;;44.40;26.20;;;;;;;-0.49;100.00;100261.94;1458375;89;21617;-76
2023/12/06 01:08:24;;;;;;;45.63;25.87;;;;;;;-0.43;100.00;100265.55;1463982;89;22373;-77
2023/12/06 01:10:51;;;;;;;42.10;24.90;;;;;;;-0.35;100.00;100258.61;1461343;89;21631;-77
2023/12/06 01:13:19;;;;;;;38.93;23.63;;;;;;;-0.31;100.00;100256.25;1460484;89;22336;-76
2023/12/06 01:15:46;;;;;;;40.03;25.37;;;;;;;-0.32;100.00;100251.48;1462345;89;21907;-76
2023/12/06 01:18:13;;;;;;;44.30;25.10;;;;;;;-0.37;100.00;100248.31;1457444;89;21808;-77
2023/12/06 01:20:39;;;;;;;44.97;24.87;;;;;;;-0.43;100.00;100240.84;1452479;89;22499;-77
2023/12/06 01:23:06;;;;;;;43.70;24.63;;;;;;;-0.54;100.00;100223.20;1454637;89;21657;-76
2023/12/06 01:25:34;;;;;;;45.73;24.73;;;;;;;-0.63;100.00;100206.80;1458134;89;22553;-77
2023/12/06 01:28:00;;;;;;;48.97;26.23;;;;;;;-0.75;100.00;100189.23;1457989;89;21565;-76
2023/12/06 01:30:27;;;;;;;47.27;26.13;;;;;;;-0.78;100.00;100205.83;1449581;89;21879;-77
2023/12/06 01:32:53;;;;;;;47.50;27.33;;;;;;;-0.76;100.00;100216.99;1453732;89;22386;-76
2023/12/06 01:35:19;;;;;;;45.20;27.40;;;;;;;-0.72;100.00;100222.86;1456461;89;21457;-77
2023/12/06 01:37:45;;;;;;;48.37;26.03;;;;;;;-0.76;100.00;100224.79;1458452;89;21874;-76
2023/12/06 01:40:12;;;;;;;41.00;24.53;;;;;;;-0.73;100.00;100225.92;1456936;89;21582;-77
2023/12/06 01:42:38;;;;;;;45.93;28.33;;;;;;;-0.71;100.00;100221.97;1455413;89;21673;-77
2023/12/06 01:45:05;;;;;;;47.47;26.80;;;;;;;-0.70;100.00;100226.23;1460790;89;21591;-77
2023/12/06 01:47:34;;;;;;;51.60;27.27;;;;;;;-0.70;100.00;100220.56;1463441;89;22096;-76
2023/12/06 01:50:04;;;;;;;47.20;27.60;;;;;;;-0.65;100.00;100224.23;1455720;89;22583;-76
2023/12/06 01:52:30;;;;;;;50.47;29.63;;;;;;;-0.66;100.00;100217.80;1464027;89;21717;-76
2023/12/06 01:54:58;;;;;;;46.00;28.03;;;;;;;-0.64;100.00;100212.07;1465598;89;21869;-77
2023/12/06 01:57:28;;;;;;;47.97;27.50;;;;;;;-0.63;100.00;100209.41;1439387;89;21974;-77
2023/12/06 01:59:56;;;;;;;49.45;26.35;;;;;;;-0.60;100.00;100213.14;1461130;89;21551;-78
2023/12/06 02:02:23;;;;;;;47.03;26.10;;;;;;;-0.55;100.00;100207.67;1468559;89;21442;-78
2023/12/06 02:04:49;;;;;;;44.77;26.07;;;;;;;-0.50;100.00;100211.70;1455548;89;21602;-76
2023/12/06 02:07:16;;;;;;;46.87;27.53;;;;;;;-0.47;100.00;100218.51;1460208;89;21545;-75
2023/12/06 02:09:42;;;;;;;44.60;27.07;;;;;;;-0.41;100.00;100219.94;1454762;89;21706;-76
2023/12/06 02:12:08;;;;;;;51.30;28.13;;;;;;;-0.39;100.00;100216.80;1444053;89;21650;-76
2023/12/06 02:14:35;;;;;;;47.20;28.30;;;;;;;-0.41;100.00;100218.64;1459721;89;21544;-77
2023/12/06 02:17:03;;;;;;;46.00;27.10;;;;;;;-0.46;100.00;100209.80;1457018;89;21493;-76
2023/12/06 02:19:30;;;;;;;43.67;25.87;;;;;;;-0.39;100.00;100216.80;1464907;89;21664;-76
2023/12/06 02:22:00;;;;;;;44.43;25.23;;;;;;;-0.38;100.00;100210.20;1455765;89;21528;-76
2023/12/06 02:24:30;;;;;;;43.20;25.03;;;;;;;-0.40;100.00;100206.00;1460094;89;21775;-77
2023/12/06 02:26:59;;;;;;;42.17;25.47;;;;;;;-0.41;100.00;100198.67;1465144;89;22405;-76
2023/12/06 02:29:25;;;;;;;41.33;24.00;;;;;;;-0.42;100.00;100197.47;1451520;89;21508;-77
2023/12/06 02:31:52;;;;;;;43.60;25.40;;;;;;;-0.42;100.00;100190.97;1455600;89;21485;-76
2023/12/06 02:34:23;;;;;;;41.93;25.47;;;;;;;-0.39;100.00;100190.80;1457863;89;22594;-77
2023/12/06 02:36:54;;;;;;;42.48;23.40;;;;;;;-0.38;100.00;100187.27;1458390;89;21530;-76
2023/12/06 02:39:21;;;;;;;39.92;24.70;;;;;;;-0.47;100.00;100188.14;1450798;89;21443;-75
2023/12/06 02:41:47;;;;;;;39.83;23.30;;;;;;;-0.46;100.00;100187.70;1446723;90;22226;-78
2023/12/06 02:44:13;;;;;;;43.77;23.47;;;;;;;-0.43;100.00;100196.64;1446904;90;21627;-77
2023/12/06 02:46:40;;;;;;;42.07;24.37;;;;;;;-0.43;100.00;100191.88;1442223;90;22491;-76
2023/12/06 02:49:06;;;;;;;41.70;24.63;;;;;;;-0.47;100.00;100175.14;1450237;90;21682;-76
2023/12/06 02:51:32;;;;;;;42.00;24.50;;;;;;;-0.48;100.00;100176.54;1453590;89;21782;-76
2023/12/06 02:53:58;;;;;;;48.50;25.57;;;;;;;-0.48;100.00;100176.54;1450953;90;22162;-77
2023/12/06 02:56:25;;;;;;;49.60;25.07;;;;;;;-0.42;100.00;100177.97;1448395;90;21853;-77
2023/12/06 02:58:51;;;;;;;48.57;26.53;;;;;;;-0.37;100.00;100187.66;1446079;89;21843;-76
2023/12/06 03:01:19;;;;;;;64.17;31.93;;;;;;;-0.33;100.00;100183.50;1449950;89;21499;-76
2023/12/06 03:03:45;;;;;;;109.53;42.20;;;;;;;-0.29;100.00;100182.86;1449321;89;22491;-76
2023/12/06 03:06:11;;;;;;;71.53;33.53;;;;;;;-0.26;100.00;100170.98;1446138;90;21544;-76
2023/12/06 03:08:37;;;;;;;127.20;48.07;;;;;;;-0.24;100.00;100172.58;1457716;90;22070;-77
2023/12/06 03:11:03;;;;;;;128.33;50.80;;;;;;;-0.21;100.00;100167.67;1445507;90;21926;-77
2023/12/06 03:13:30;;;;;;;169.47;61.63;;;;;;;-0.18;100.00;100169.27;1428076;90;21656;-76
2023/12/06 03:15:56;;;;;;;226.83;73.47;;;;;;;-0.15;100.00;100166.02;1450519;90;21509;-77
2023/12/06 03:18:22;;;;;;;80.57;38.17;;;;;;;-0.12;100.00;100159.81;1451393;90;21601;-78
2023/12/06 03:20:48;;;;;;;119.80;54.37;;;;;;;-0.10;100.00;100157.51;1441331;90;21683;-77
2023/12/06 03:23:15;;;;;;;61.70;34.60;;;;;;;-0.09;100.00;100163.08;1459207;90;22323;-78
2023/12/06 03:25:41;;;;;;;75.40;34.87;;;;;;;-0.06;100.00;100162.93;1448921;90;21520;-76
2023/12/06 03:28:07;;;;;;;92.03;40.33;;;;;;;-0.04;100.00;100162.83;1446925;90;21597;-78
2023/12/06 03:30:33;;;;;;;90.30;40.03;;;;;;;0.01;100.00;100169.92;1452811;90;21645;-78
2023/12/06 03:32:59;;;;;;;168.90;63.23;;;;;;;0.01;100.00;100169.92;1454802;90;21524;-77
2023/12/06 03:35:25;;;;;;;311.17;112.23;;;;;;;0.03;100.00;100163.31;1456553;90;22508;-77
2023/12/06 03:37:51;;;;;;;168.57;65.97;;;;;;;0.06;100.00;100173.11;1453506;89;21700;-76
2023/12/06 03:40:18;;;;;;;125.70;54.70;;;;;;;0.07;100.00;100167.44;1455288;90;21390;-77
2023/12/06 03:42:44;;;;;;;73.93;34.80;;;;;;;0.06;100.00;100163.14;1451266;89;21626;-77
2023/12/06 03:45:12;;;;;;;78.43;38.17;;;;;;;0.07;100.00;100164.83;1457025;90;22357;-78
2023/12/06 03:47:39;;;;;;;93.03;43.20;;;;;;;0.08;100.00;100164.73;1455927;90;21656;-77
2023/12/06 03:50:07;;;;;;;119.33;57.23;;;;;;;0.10;100.00;100160.28;1453706;89;22619;-78
2023/12/06 03:52:33;;;;;;;62.73;32.03;;;;;;;0.12;100.00;100163.64;1440799;90;21493;-77
2023/12/06 03:54:59;;;;;;;92.10;46.93;;;;;;;0.14;100.00;100158.34;1455257;90;22485;-77
2023/12/06 03:57:26;;;;;;;74.43;38.50;;;;;;;0.16;100.00;100167.73;1448384;90;21727;-77
2023/12/06 03:59:52;;;;;;;58.50;33.00;;;;;;;0.17;100.00;100162.06;1457744;90;21635;-77
2023/12/06 04:02:18;;;;;;;90.10;44.07;;;;;;;0.16;100.00;100157.80;1453821;90;21675;-77
2023/12/06 04:04:45;;;;;;;54.23;28.73;;;;;;;0.11;100.00;100154.61;1451565;90;21640;-76
2023/12/06 04:07:11;;;;;;;101.37;46.03;;;;;;;0.11;100.00;100153.31;1451747;89;22528;-77
2023/12/06 04:09:38;;;;;;;45.60;25.53;;;;;;;0.09;100.00;100165.59;1450060;90;22677;-77
2023/12/06 04:12:06;;;;;;;40.77;22.63;;;;;;;0.07;100.00;100162.23;1459049;90;21737;-77
2023/12/06 04:14:32;;;;;;;38.50;23.20;;;;;;;0.04;100.00;100163.23;1451148;90;21682;-77
2023/12/06 04:16:58;;;;;;;38.70;23.03;;;;;;;0.00;100.00;100164.34;1450132;90;21658;-78
2023/12/06 04:19:24;;;;;;;38.37;23.67;;;;;;;0.02;100.00;100169.45;1447707;90;21842;-77
2023/12/06 04:21:51;;;;;;;47.53;27.60;;;;;;;0.02;100.00;100159.05;1454802;90;22368;-77
2023/12/06 04:24:17;;;;;;;57.23;29.43;;;;;;;0.05;100.00;100157.56;1454820;90;22723;-77
2023/12/06 04:26:43;;;;;;;41.57;24.23;;;;;;;0.06;100.00;100149.69;1447757;90;22823;-77
2023/12/06 04:29:09;;;;;;;40.53;22.57;;;;;;;0.07;100.00;100149.22;1453017;90;21633;-78
2023/12/06 04:31:36;;;;;;;44.50;27.13;;;;;;;0.05;100.00;100145.86;1449104;90;21703;-77
2023/12/06 04:34:02;;;;;;;41.70;25.43;;;;;;;0.04;100.00;100138.52;1448109;90;21641;-77
2023/12/06 04:36:29;;;;;;;43.33;23.53;;;;;;;0.06;100.00;100145.78;1450613;90;21548;-77
2023/12/06 04:38:55;;;;;;;47.33;25.43;;;;;;;0.08;100.00;100149.11;1461177;89;21775;-77
2023/12/06 04:41:21;;;;;;;37.97;22.60;;;;;;;0.06;100.00;100151.42;1462275;89;22528;-77
2023/12/06 04:43:48;;;;;;;43.23;25.20;;;;;;;0.07;100.00;100149.22;1458261;89;21635;-76
2023/12/06 04:46:14;;;;;;;41.40;24.10;;;;;;;0.05;100.00;100147.16;1462514;89;22674;-77
2023/12/06 04:48:40;;;;;;;39.43;24.83;;;;;;;0.05;100.00;100146.69;1456145;89;21779;-77
2023/12/06 04:51:07;;;;;;;43.87;25.43;;;;;;;0.04;100.00;100141.59;1452981;89;22623;-77
2023/12/06 04:53:33;;;;;;;48.40;26.23;;;;;;;0.03;100.00;100139.89;1457885;89;21545;-77
2023/12/06 04:55:59;;;;;;;57.53;32.43;;;;;;;-0.01;100.00;100138.77;1460207;89;21613;-77
2023/12/06 04:58:25;;;;;;;48.10;26.47;;;;;;;-0.07;100.00;100141.72;1458337;89;21678;-78
2023/12/06 05:00:52;;;;;;;68.43;35.57;;;;;;;-0.08;100.00;100137.45;1455523;89;21736;-76
2023/12/06 05:03:19;;;;;;;84.13;41.00;;;;;;;-0.11;100.00;100140.23;1451149;89;22447;-77
2023/12/06 05:05:45;;;;;;;57.40;29.67;;;;;;;-0.12;100.00;100141.60;1452205;89;21592;-77
2023/12/06 05:08:12;;;;;;;53.17;26.83;;;;;;;-0.15;100.00;100143.91;1463913;89;21752;-76
2023/12/06 05:10:38;;;;;;;43.60;24.53;;;;;;;-0.20;100.00;100143.80;1457770;89;21899;-76
2023/12/06 05:13:04;;;;;;;37.13;22.30;;;;;;;-0.26;100.00;100138.03;1460733;89;21720;-76
2023/12/06 05:15:30;;;;;;;42.67;25.23;;;;;;;-0.26;100.00;100130.67;1458621;89;21471;-76
2023/12/06 05:17:56;;;;;;;46.73;24.83;;;;;;;-0.31;100.00;100131.41;1455373;89;21811;-75
2023/12/06 05:20:23;;;;;;;43.83;24.43;;;;;;;-0.34;100.00;100139.39;1460246;89;21591;-75
2023/12/06 05:22:49;;;;;;;43.10;25.17;;;;;;;-0.37;100.00;100136.49;1458982;89;21709;-76
2023/12/06 05:25:15;;;;;;;49.83;26.93;;;;;;;-0.39;100.00;100134.42;1458320;89;21524;-76
2023/12/06 05:27:41;;;;;;;51.47;27.57;;;;;;;-0.39;100.00;100121.89;1449123;89;21767;-75
2023/12/06 05:30:08;;;;;;;51.53;27.37;;;;;;;-0.38;100.00;100126.16;1458236;89;21731;-76
2023/12/06 05:32:34;;;;;;;48.93;27.90;;;;;;;-0.39;100.00;100129.23;1459873;89;21693;-76
2023/12/06 05:35:02;;;;;;;40.23;23.17;;;;;;;-0.41;100.00;100132.83;1462472;89;21574;-77
2023/12/06 05:37:28;;;;;;;36.57;21.63;;;;;;;-0.43;100.00;100139.88;1457164;89;22694;-75
2023/12/06 05:39:54;;;;;;;45.20;24.80;;;;;;;-0.48;100.00;100140.14;1453109;87;21413;-77
2023/12/06 05:42:21;;;;;;;39.80;24.27;;;;;;;-0.53;100.00;100135.18;1458973;89;21591;-76
2023/12/06 05:44:47;;;;;;;48.93;27.33;;;;;;;-0.58;100.00;100129.86;1448968;90;21812;-76
2023/12/06 05:47:13;;;;;;;41.20;23.50;;;;;;;-0.60;100.00;100127.83;1441732;90;22569;-77
2023/12/06 05:49:40;;;;;;;73.73;38.10;;;;;;;-0.62;100.00;100131.79;1451385;90;21657;-77
2023/12/06 05:52:06;;;;;;;41.40;23.87;;;;;;;-0.63;100.00;100135.33;1453511;90;21777;-75
2023/12/06 05:54:33;;;;;;;46.70;25.97;;;;;;;-0.62;100.00;100129.66;1456818;90;21736;-75
2023/12/06 05:56:59;;;;;;;50.07;28.30;;;;;;;-0.65;100.00;100129.36;1454018;89;21649;-76
2023/12/06 05:59:26;;;;;;;53.03;28.23;;;;;;;-0.65;100.00;100126.77;1458916;90;22574;-78
2023/12/06 06:01:52;;;;;;;65.67;33.50;;;;;;;-0.66;100.00;100121.20;1458410;90;21706;-78
2023/12/06 06:04:18;;;;;;;67.73;36.90;;;;;;;-0.68;100.00;100117.83;1445377;90;21472;-78
2023/12/06 06:06:44;;;;;;;43.80;26.23;;;;;;;-0.70;100.00;100119.20;1455744;90;21596;-78
2023/12/06 06:09:10;;;;;;;70.43;37.13;;;;;;;-0.72;100.00;100123.67;1452530;90;21831;-78
2023/12/06 06:11:36;;;;;;;83.20;45.07;;;;;;;-0.75;100.00;100129.47;1451834;89;21622;-77
2023/12/06 06:14:02;;;;;;;58.90;30.33;;;;;;;-0.75;100.00;100120.38;1460386;90;21663;-79
2023/12/06 06:16:29;;;;;;;53.20;30.63;;;;;;;-0.77;100.00;100119.17;1450812;90;21845;-77
2023/12/06 06:18:55;;;;;;;46.73;25.83;;;;;;;-0.78;100.00;100125.73;1456592;90;21573;-80
2023/12/06 06:21:21;;;;;;;51.57;32.30;;;;;;;-0.78;100.00;100129.64;1462221;90;21581;-78
2023/12/06 06:23:47;;;;;;;43.00;25.40;;;;;;;-0.77;100.00;100119.64;1453442;90;21733;-78
2023/12/06 06:26:14;;;;;;;55.37;29.80;;;;;;;-0.77;100.00;100123.54;1443054;90;21531;-78
2023/12/06 06:28:40;;;;;;;43.67;25.63;;;;;;;-0.76;100.00;100127.34;1444944;90;22582;-78
2023/12/06 06:31:08;;;;;;;50.10;26.50;;;;;;;-0.75;100.00;100132.07;1450555;90;22734;-77
2023/12/06 06:33:34;;;;;;;47.67;28.73;;;;;;;-0.75;100.00;100126.87;1449684;89;21867;-77
2023/12/06 06:36:00;;;;;;;46.63;24.97;;;;;;;-0.74;100.00;100128.56;1449218;89;21695;-78
2023/12/06 06:38:26;;;;;;;44.30;24.70;;;;;;;-0.72;100.00;100128.87;1451550;89;22553;-78
2023/12/06 06:40:53;;;;;;;41.23;24.03;;;;;;;-0.70;100.00;100135.27;1456016;90;21463;-78
2023/12/06 06:43:19;;;;;;;52.30;27.40;;;;;;;-0.70;100.00;100136.09;1445979;90;21682;-78
2023/12/06 06:45:45;;;;;;;45.57;24.43;;;;;;;-0.65;100.00;100141.06;1458591;90;21722;-78
2023/12/06 06:48:11;;;;;;;36.10;21.03;;;;;;;-0.61;100.00;100139.13;1442488;90;21634;-78
2023/12/06 06:50:37;;;;;;;35.97;21.53;;;;;;;-0.64;100.00;100141.89;1453782;89;21619;-77
2023/12/06 06:53:03;;;;;;;38.23;23.63;;;;;;;-0.61;100.00;100139.95;1452644;90;22633;-78
2023/12/06 06:55:30;;;;;;;45.60;24.10;;;;;;;-0.60;100.00;100139.52;1447891;90;22087;-78
2023/12/06 06:58:03;;;;;;;41.83;24.13;;;;;;;-0.55;100.00;100138.31;1450760;90;21523;-77
2023/12/06 07:00:27;;;;;;;44.27;24.07;;;;;;;-0.49;100.00;100139.31;1442235;90;22537;-77
2023/12/06 07:02:53;;;;;;;43.40;22.47;;;;;;;-0.44;100.00;100139.50;1448092;90;22396;-76
2023/12/06 07:05:19;;;;;;;47.33;27.10;;;;;;;-0.43;100.00;100135.53;1451265;90;21716;-77
2023/12/06 07:07:46;;;;;;;47.20;27.90;;;;;;;-0.38;100.00;100135.27;1452685;90;21501;-77
2023/12/06 07:10:12;;;;;;;39.63;23.67;;;;;;;-0.36;100.00;100130.83;1456787;90;21627;-76
2023/12/06 07:12:39;;;;;;;65.10;34.13;;;;;;;-0.38;100.00;100128.30;1455654;89;21568;-77
2023/12/06 07:15:14;;;;;;;55.63;28.77;;;;;;;-0.39;100.00;100127.93;1450689;90;22546;-78
2023/12/06 07:17:35;;;;;;;42.77;22.50;;;;;;;-0.36;100.00;100126.45;1446098;89;21718;-79
2023/12/06 07:20:01;;;;;;;41.23;23.80;;;;;;;-0.32;100.00;100122.74;1453153;90;21665;-75
2023/12/06 07:22:27;;;;;;;37.90;22.23;;;;;;;-0.31;100.00;100118.41;1459321;90;22164;-77
2023/12/06 07:24:53;;;;;;;56.70;31.80;;;;;;;-0.27;100.00;100122.50;1454385;89;21566;-77
2023/12/06 07:27:19;;;;;;;48.23;26.60;;;;;;;-0.21;100.00;100122.16;1451570;90;22044;-77
2023/12/06 07:29:46;;;;;;;58.53;32.60;;;;;;;-0.12;100.00;100120.80;1453954;90;21806;-78
2023/12/06 07:32:12;;;;;;;42.40;24.43;;;;;;;-0.10;100.00;100113.75;1442221;89;21632;-77
2023/12/06 07:34:38;;;;;;;40.87;22.90;;;;;;;-0.05;100.00;100122.97;1452588;90;21493;-78
2023/12/06 07:37:04;;;;;;;46.73;27.30;;;;;;;0.03;100.00;100135.55;1450441;90;21612;-78
2023/12/06 07:39:30;;;;;;;38.37;21.40;;;;;;;0.14;100.00;100140.12;1458533;89;21674;-78
2023/12/06 07:41:56;;;;;;;33.97;19.93;;;;;;;0.14;100.00;100140.12;1446910;90;22091;-77
2023/12/06 07:44:23;;;;;;;40.23;24.00;;;;;;;0.24;100.00;100143.05;1455836;90;21727;-78
2023/12/06 07:46:50;;;;;;;34.67;22.27;;;;;;;0.32;100.00;100136.47;1450686;90;21676;-78
2023/12/06 07:49:16;;;;;;;42.33;24.00;;;;;;;0.39;100.00;100137.77;1446772;90;21797;-77
2023/12/06 07:51:45;;;;;;;40.80;23.57;;;;;;;0.37;100.00;100139.63;1451061;89;21725;-77
2023/12/06 07:54:11;;;;;;;36.43;22.13;;;;;;;0.46;100.00;100143.45;1454032;90;21877;-77
2023/12/06 07:56:37;;;;;;;34.70;20.87;;;;;;;0.43;100.00;100140.59;1444492;90;21747;-77
2023/12/06 07:59:04;;;;;;;46.33;24.80;;;;;;;0.39;100.00;100139.08;1454310;90;21943;-78
2023/12/06 08:01:31;;;;;;;35.70;21.37;;;;;;;0.49;100.00;100134.63;1454780;90;22717;-77
2023/12/06 08:03:59;;;;;;;38.53;22.60;;;;;;;0.47;100.00;100136.03;1458027;90;21751;-78
2023/12/06 08:06:27;;;;;;;36.73;20.53;;;;;;;0.45;100.00;100128.77;1455764;89;22611;-77
2023/12/06 08:08:54;;;;;;;50.23;25.37;;;;;;;0.50;100.00;100136.31;1453911;90;21658;-77
2023/12/06 08:11:20;;;;;;;37.30;21.63;;;;;;;0.50;100.00;100136.31;1449723;89;22815;-77
2023/12/06 08:13:47;;;;;;;40.77;24.70;;;;;;;0.57;100.00;100135.84;1453393;90;21716;-77
2023/12/06 08:16:13;;;;;;;46.10;25.87;;;;;;;0.73;100.00;100147.98;1452810;90;21979;-77
2023/12/06 08:18:40;;;;;;;40.20;24.63;;;;;;;0.73;100.00;100147.98;1451477;89;21985;-77
2023/12/06 08:21:08;;;;;;;40.77;24.73;;;;;;;0.78;100.00;100144.17;1456822;89;21835;-77
2023/12/06 08:23:35;;;;;;;38.33;23.90;;;;;;;0.95;100.00;100143.59;1453893;90;21695;-77
2023/12/06 08:26:04;;;;;;;37.70;20.97;;;;;;;0.95;100.00;100143.59;1451819;90;21951;-77
2023/12/06 08:28:32;;;;;;;38.30;21.97;;;;;;;0.89;100.00;100148.27;1439378;90;22064;-77
2023/12/06 08:30:58;;;;;;;35.13;21.13;;;;;;;0.90;100.00;100138.68;1449583;90;22696;-77
2023/12/06 08:33:24;;;;;;;38.27;22.77;;;;;;;0.90;100.00;100130.39;1455630;90;22025;-77
2023/12/06 08:35:51;;;;;;;37.37;22.27;;;;;;;0.94;100.00;100130.20;1452611;89;21863;-77
2023/12/06 08:38:17;;;;;;;35.43;20.87;;;;;;;0.92;100.00;100128.14;1451236;89;22312;-77
2023/12/06 08:40:44;;;;;;;34.73;21.87;;;;;;;0.90;100.00;100130.39;1455496;89;21806;-77
2023/12/06 08:43:11;;;;;;;39.10;21.60;;;;;;;0.90;100.00;100136.07;1453118;90;21800;-78
2023/12/06 08:45:37;;;;;;;46.83;26.77;;;;;;;0.98;100.00;100134.28;1456563;89;21921;-77
2023/12/06 08:48:04;;;;;;;34.57;21.20;;;;;;;1.07;100.00;100135.05;1448697;90;21954;-77
2023/12/06 08:50:31;;;;;;;32.93;19.67;;;;;;;1.06;100.00;100126.84;1456635;89;21826;-77
2023/12/06 08:52:57;;;;;;;38.00;21.70;;;;;;;1.15;100.00;100138.00;1447283;90;23003;-77
2023/12/06 08:55:23;;;;;;;38.87;22.93;;;;;;;1.19;100.00;100140.80;1453833;90;22316;-77
2023/12/06 08:57:50;;;;;;;39.50;23.47;;;;;;;1.19;100.00;100140.80;1447803;90;22247;-77
2023/12/06 09:00:17;;;;;;;48.00;26.37;;;;;;;1.42;100.00;100135.93;1453721;90;22781;-77
2023/12/06 09:02:44;;;;;;;64.73;30.83;;;;;;;1.54;100.00;100122.94;1448766;89;21983;-77
2023/12/06 09:05:11;;;;;;;37.50;21.00;;;;;;;1.54;100.00;100121.63;1453149;90;22925;-77
2023/12/06 09:07:40;;;;;;;38.53;20.83;;;;;;;1.62;100.00;100121.63;1448776;90;22608;-77
2023/12/06 09:10:09;;;;;;;41.07;22.63;;;;;;;1.76;100.00;100127.63;1451119;89;22313;-78
2023/12/06 09:12:35;;;;;;;52.83;28.63;;;;;;;1.84;100.00;100131.51;1454576;89;22033;-78
2023/12/06 09:15:03;;;;;;;75.20;36.03;;;;;;;1.93;100.00;100128.33;1450538;90;22070;-77
2023/12/06 09:17:29;;;;;;;63.17;33.47;;;;;;;2.06;100.00;100124.44;1461309;89;21966;-77
2023/12/06 09:19:56;;;;;;;38.00;22.07;;;;;;;2.22;100.00;100123.33;1449735;90;22230;-77
2023/12/06 09:22:22;;;;;;;40.80;21.30;;;;;;;2.35;100.00;100112.05;1443472;89;22084;-77
2023/12/06 09:24:48;;;;;;;31.20;19.97;;;;;;;2.41;100.00;100114.25;1448832;90;22170;-78
2023/12/06 09:27:18;;;;;;;42.23;25.13;;;;;;;2.45;100.00;100114.43;1449914;90;21427;-77
2023/12/06 09:29:47;;;;;;;38.93;23.70;;;;;;;2.55;100.00;100104.19;1456981;90;21361;-78
2023/12/06 09:32:13;;;;;;;48.53;26.60;;;;;;;2.71;100.00;100113.49;1447351;90;21515;-78
2023/12/06 09:34:44;;;;;;;63.30;31.80;;;;;;;2.88;100.00;100104.49;1453354;90;21309;-79
2023/12/06 09:37:10;;;;;;;;;;;;;;;3.31;100.00;100103.23;1448697;89;22480;-78
2023/12/06 09:39:36;;;;;;;43.50;25.27;;;;;;;3.40;100.00;100094.76;1447894;90;20306;-76
2023/12/06 09:42:04;;;;;;;54.57;29.73;;;;;;;3.87;100.00;100096.17;1451332;89;21638;-76
2023/12/06 09:44:31;;;;;;;27.97;18.87;;;;;;;4.34;100.00;100086.08;1452608;89;22313;-76
2023/12/06 09:47:03;;;;;;;51.33;27.67;;;;;;;4.37;100.00;100083.22;1452292;89;21413;-78
2023/12/06 09:49:27;;;;;;;32.27;19.93;;;;;;;4.57;100.00;100083.02;1454678;89;21580;-76
2023/12/06 09:51:57;;;;;;;27.70;17.93;;;;;;;4.52;100.00;100079.45;1449184;90;21376;-75
2023/12/06 09:54:23;;;;;;;29.15;19.17;;;;;;;4.38;100.00;100077.05;1376359;90;22278;-76
2023/12/06 09:56:49;;;;;;;33.17;18.57;;;;;;;4.16;100.00;100079.61;1379552;89;21383;-76
2023/12/06 09:59:15;;;;;;;25.27;15.60;;;;;;;4.22;100.00;100073.91;1373327;90;21243;-76
2023/12/06 10:01:41;;;;;;;24.70;16.77;;;;;;;4.07;100.00;100070.66;1379679;90;22137;-76
2023/12/06 10:04:09;;;;;;;34.00;19.93;;;;;;;4.07;100.00;100062.32;1379750;89;21548;-76
2023/12/06 10:06:35;;;;;;;23.30;16.03;;;;;;;4.45;100.00;100064.30;1371181;90;21251;-76
2023/12/06 10:09:01;;;;;;;32.20;19.83;;;;;;;4.53;100.00;100056.21;1379500;90;21250;-76
2023/12/06 10:11:28;;;;;;;21.13;14.80;;;;;;;4.51;100.00;100067.28;1379871;90;21487;-76
2023/12/06 10:13:54;;;;;;;27.93;18.20;;;;;;;4.22;100.00;100058.19;1379233;89;21236;-76
2023/12/06 10:16:21;;;;;;;24.53;16.07;;;;;;;4.24;100.00;100050.58;1379611;90;21296;-76
2023/12/06 10:18:52;;;;;;;46.97;26.03;;;;;;;4.28;100.00;100048.07;1377747;89;21399;-76
2023/12/06 10:21:20;;;;;;;27.50;16.42;;;;;;;4.46;100.00;100039.30;1535695;89;21983;-76
2023/12/06 10:24:00;;;;;;;58.10;30.17;;;;;;;4.55;100.00;100043.48;1377834;89;21309;-75
2023/12/06 10:26:31;;;;;;;29.03;17.67;;;;;;;4.68;100.00;100049.42;1535336;89;22145;-74
2023/12/06 10:28:58;;;;;;;27.70;18.47;;;;;;;4.71;100.00;100043.94;1510816;89;21529;-73
2023/12/06 10:31:26;;;;;;;28.37;17.57;;;;;;;4.93;100.00;100033.45;1455192;90;21390;-74
2023/12/06 10:33:56;;;;;;;26.63;17.13;;;;;;;5.07;100.00;100036.30;1377642;89;21407;-75
2023/12/06 10:36:28;;;;;;;29.15;17.60;;;;;;;5.07;100.00;100031.53;1535579;89;21426;-74
2023/12/06 10:38:55;;;;;;;30.43;18.30;;;;;;;5.13;100.00;100034.98;1489579;90;21412;-74
2023/12/06 10:41:24;;;;;;;29.97;18.87;;;;;;;5.10;100.00;100026.87;1453241;89;21449;-75
2023/12/06 10:43:55;;;;;;;27.27;16.87;;;;;;;5.19;100.00;100026.61;1454471;89;21390;-77
2023/12/06 10:46:23;;;;;;;38.03;20.87;;;;;;;5.07;100.00;100028.91;1470303;89;21301;-77
2023/12/06 10:48:52;;;;;;;60.70;30.47;;;;;;;4.97;100.00;100024.38;1452782;89;21515;-76
2023/12/06 10:51:19;;;;;;;28.90;19.07;;;;;;;4.94;100.00;100023.30;1459769;89;21308;-77
2023/12/06 10:53:47;;;;;;;34.63;20.40;;;;;;;4.85;100.00;100021.41;1461539;89;22254;-76
2023/12/06 10:56:15;;;;;;;26.83;17.90;;;;;;;4.92;100.00;100016.06;1445671;89;21367;-77
2023/12/06 10:58:44;;;;;;;30.33;19.87;;;;;;;5.05;100.00;100013.77;1462517;89;21417;-76
2023/12/06 11:01:13;;;;;;;29.43;18.67;;;;;;;5.12;100.00;100010.99;1460193;89;21352;-77
2023/12/06 11:03:39;;;;;;;32.17;18.80;;;;;;;5.12;100.00;100016.23;1464884;89;21463;-77